createdAt,value
2019-05-22T00:01:00.865Z,28.93
2019-05-22T00:03:35.792Z,23.80
2019-05-22T00:06:06.815Z,22.62
2019-05-22T00:08:37.935Z,21.47
2019-05-22T00:11:10.639Z,26.87
2019-05-22T00:13:41.468Z,24.10
2019-05-22T00:16:12.705Z,25.37
2019-05-22T00:18:44.053Z,24.10
2019-05-22T00:21:16.185Z,20.47
2019-05-22T00:23:49.030Z,20.23
2019-05-22T00:26:22.055Z,24.37
2019-05-22T00:28:54.255Z,24.13
2019-05-22T00:31:26.152Z,26.50
2019-05-22T00:33:57.859Z,25.33
2019-05-22T00:36:29.374Z,25.10
2019-05-22T00:39:00.663Z,21.87
2019-05-22T00:41:32.705Z,25.27
2019-05-22T00:44:04.951Z,23.53
2019-05-22T00:46:36.405Z,27.27
2019-05-22T00:49:09.241Z,24.40
2019-05-22T00:51:45.815Z,29.50
2019-05-22T00:54:26.396Z,27.93
2019-05-22T00:57:15.206Z,28.77
2019-05-22T00:59:46.929Z,25.60
2019-05-22T01:02:21.680Z,25.92
2019-05-22T01:04:54.261Z,24.53
2019-05-22T01:07:30.454Z,23.70
2019-05-22T01:10:03.593Z,24.50
2019-05-22T01:12:43.573Z,29.23
2019-05-22T01:15:18.595Z,26.07
2019-05-22T01:17:50.877Z,25.97
2019-05-22T01:20:25.467Z,26.80
2019-05-22T01:22:59.163Z,30.88
2019-05-22T01:25:31.515Z,25.13
2019-05-22T01:28:04.144Z,28.60
2019-05-22T01:30:45.842Z,28.10
2019-05-22T01:33:21.350Z,27.70
2019-05-22T01:36:13.733Z,29.60
2019-05-22T01:38:45.432Z,23.30
2019-05-22T01:41:21.054Z,24.92
2019-05-22T01:43:52.819Z,22.27
2019-05-22T01:46:24.688Z,21.87
2019-05-22T01:48:57.152Z,23.13
2019-05-22T01:51:27.764Z,23.43
2019-05-22T01:53:57.920Z,21.70
2019-05-22T01:56:29.807Z,21.97
2019-05-22T01:59:00.654Z,19.15
2019-05-22T02:01:32.353Z,17.90
2019-05-22T02:04:04.417Z,18.23
2019-05-22T02:06:36.748Z,19.70
2019-05-22T02:09:31.350Z,19.90
2019-05-22T02:12:16.382Z,21.13
2019-05-22T02:14:50.021Z,20.57
2019-05-22T02:17:27.099Z,21.27
2019-05-22T02:19:57.761Z,17.67
2019-05-22T02:22:29.448Z,19.42
2019-05-22T02:24:59.902Z,18.13
2019-05-22T02:27:31.876Z,20.50
2019-05-22T02:30:04.114Z,18.30
2019-05-22T02:32:35.317Z,21.07
2019-05-22T02:35:09.125Z,17.60
2019-05-22T02:37:41.267Z,19.67
2019-05-22T02:40:22.107Z,19.50
2019-05-22T02:42:52.559Z,21.77
2019-05-22T02:45:23.522Z,15.70
2019-05-22T02:47:55.918Z,17.07
2019-05-22T02:50:27.483Z,17.00
2019-05-22T02:52:59.163Z,17.20
2019-05-22T02:55:30.329Z,22.47
2019-05-22T02:58:00.884Z,21.17
2019-05-22T03:00:49.692Z,20.13
2019-05-22T03:03:20.485Z,19.17
2019-05-22T03:05:52.097Z,17.83
2019-05-22T03:08:23.454Z,20.93
2019-05-22T03:10:53.672Z,20.43
2019-05-22T03:13:57.520Z,17.90
2019-05-22T03:16:32.875Z,16.70
2019-05-22T03:19:08.730Z,19.50
2019-05-22T03:21:35.827Z,20.43
2019-05-22T03:24:06.708Z,24.30
2019-05-22T03:26:48.190Z,21.33
2019-05-22T03:29:23.934Z,19.67
2019-05-22T03:31:54.184Z,22.13
2019-05-22T03:34:24.858Z,22.90
2019-05-22T03:36:55.312Z,21.10
2019-05-22T03:39:25.705Z,22.73
2019-05-22T03:41:56.527Z,23.17
2019-05-22T03:44:28.513Z,21.57
2019-05-22T03:46:59.607Z,20.80
2019-05-22T03:49:31.310Z,20.90
2019-05-22T03:52:02.186Z,18.57
2019-05-22T03:54:32.500Z,21.13
2019-05-22T03:57:03.099Z,22.00
2019-05-22T03:59:35.839Z,18.80
2019-05-22T04:02:07.467Z,18.90
2019-05-22T04:04:42.110Z,20.00
2019-05-22T04:07:16.586Z,23.50
2019-05-22T04:09:48.799Z,18.57
2019-05-22T04:12:19.309Z,21.70
2019-05-22T04:14:49.883Z,23.33
2019-05-22T04:17:20.216Z,17.60
2019-05-22T04:19:51.810Z,18.73
2019-05-22T04:22:22.625Z,19.55
2019-05-22T04:24:52.974Z,19.17
2019-05-22T04:27:23.630Z,19.77
2019-05-22T04:29:54.078Z,17.33
2019-05-22T04:32:29.401Z,19.33
2019-05-22T04:34:59.964Z,12.87
2019-05-22T04:37:31.109Z,19.57
2019-05-22T04:40:59.906Z,16.47
2019-05-22T04:43:34.584Z,13.43
2019-05-22T04:46:10.025Z,15.93
2019-05-22T04:48:45.258Z,16.93
2019-05-22T04:51:30.278Z,16.50
2019-05-22T04:54:00.873Z,16.07
2019-05-22T04:56:31.545Z,15.30
2019-05-22T04:59:02.876Z,14.37
2019-05-22T05:01:33.698Z,12.17
2019-05-22T05:04:04.830Z,10.30
2019-05-22T05:06:37.843Z,12.87
2019-05-22T05:09:10.687Z,11.33
2019-05-22T05:11:43.879Z,11.17
2019-05-22T05:14:14.512Z,10.43
2019-05-22T05:16:46.074Z,10.13
2019-05-22T05:19:16.791Z,11.37
2019-05-22T05:21:47.331Z,11.83
2019-05-22T05:26:59.602Z,8.77
2019-05-22T05:29:33.078Z,6.30
2019-05-22T05:32:03.809Z,8.87
2019-05-22T05:34:54.363Z,8.60
2019-05-22T05:37:26.429Z,11.77
2019-05-22T05:40:38.183Z,11.93
2019-05-22T05:43:11.232Z,9.20
2019-05-22T05:45:43.749Z,10.63
2019-05-22T05:48:24.683Z,8.10
2019-05-22T05:51:33.993Z,11.93
2019-05-22T05:54:14.150Z,11.80
2019-05-22T05:56:48.881Z,9.80
2019-05-22T05:59:23.100Z,10.00
2019-05-22T06:01:55.716Z,10.17
2019-05-22T06:04:45.117Z,9.27
2019-05-22T06:07:24.323Z,9.93
2019-05-22T06:11:06.562Z,8.73
2019-05-22T06:13:37.016Z,10.30
2019-05-22T06:17:21.596Z,9.77
2019-05-22T06:19:55.354Z,12.00
2019-05-22T06:22:25.781Z,11.27
2019-05-22T06:25:02.137Z,11.50
2019-05-22T06:27:52.545Z,8.03
2019-05-22T06:30:44.767Z,12.30
2019-05-22T06:33:32.920Z,8.43
2019-05-22T06:36:12.339Z,9.37
2019-05-22T06:39:03.285Z,9.10
2019-05-22T06:41:39.495Z,9.07
2019-05-22T06:44:41.763Z,8.27
2019-05-22T06:47:24.292Z,8.03
2019-05-22T06:49:55.382Z,5.47
2019-05-22T06:52:26.006Z,5.83
2019-05-22T06:54:58.042Z,6.87
2019-05-22T06:57:33.553Z,7.53
2019-05-22T07:00:24.158Z,7.63
2019-05-22T07:02:54.453Z,7.80
2019-05-22T07:05:25.121Z,9.30
2019-05-22T07:07:55.442Z,7.83
2019-05-22T07:10:26.050Z,7.33
2019-05-22T07:12:56.415Z,7.67
2019-05-22T07:15:55.493Z,6.23
2019-05-22T07:18:29.772Z,7.23
2019-05-22T07:21:00.061Z,8.50
2019-05-22T07:23:30.586Z,8.90
2019-05-22T07:26:02.240Z,6.83
2019-05-22T07:28:33.431Z,9.90
2019-05-22T07:31:04.384Z,8.23
2019-05-22T07:33:35.124Z,11.23
2019-05-22T07:36:10.101Z,7.53
2019-05-22T07:38:38.250Z,6.97
2019-05-22T07:41:10.352Z,9.83
2019-05-22T07:43:42.051Z,7.10
2019-05-22T07:46:12.448Z,8.53
2019-05-22T07:48:42.869Z,6.23
2019-05-22T07:51:13.339Z,8.40
2019-05-22T07:53:43.737Z,8.95
2019-05-22T07:56:15.256Z,8.45
2019-05-22T07:58:45.648Z,5.73
2019-05-22T08:01:17.388Z,8.47
2019-05-22T08:03:48.717Z,6.57
2019-05-22T08:06:20.512Z,8.17
2019-05-22T08:08:54.053Z,6.90
2019-05-22T08:11:26.326Z,7.10
2019-05-22T08:13:57.844Z,7.57
2019-05-22T08:16:29.079Z,6.70
2019-05-22T08:18:59.354Z,8.63
2019-05-22T08:21:29.684Z,7.37
2019-05-22T08:24:02.359Z,5.13
2019-05-22T08:26:34.072Z,6.53
2019-05-22T08:29:05.428Z,6.17
2019-05-22T08:31:36.540Z,7.03
2019-05-22T08:34:08.083Z,7.30
2019-05-22T08:36:39.884Z,8.47
2019-05-22T08:39:11.212Z,7.70
2019-05-22T08:41:43.973Z,6.10
2019-05-22T08:44:17.557Z,6.05
2019-05-22T08:46:47.898Z,4.37
2019-05-22T08:49:18.291Z,6.00
2019-05-22T08:51:49.775Z,7.17
2019-05-22T08:54:20.592Z,7.45
2019-05-22T08:56:52.847Z,9.55
2019-05-22T08:59:23.960Z,7.27
2019-05-22T09:01:54.243Z,6.83
2019-05-22T09:04:24.794Z,7.60
2019-05-22T09:06:55.465Z,5.53
2019-05-22T09:09:26.842Z,5.50
2019-05-22T09:11:57.377Z,6.60
2019-05-22T09:14:28.758Z,6.10
2019-05-22T09:16:59.570Z,5.43
2019-05-22T09:19:29.815Z,5.33
2019-05-22T09:22:01.071Z,4.70
2019-05-22T09:24:31.516Z,5.53
2019-05-22T09:27:03.081Z,4.57
2019-05-22T09:29:33.575Z,3.90
2019-05-22T09:32:04.439Z,6.07
2019-05-22T09:34:35.066Z,3.63
2019-05-22T09:37:05.696Z,4.93
2019-05-22T09:39:36.082Z,5.47
2019-05-22T09:42:06.993Z,7.27
2019-05-22T09:44:37.365Z,5.40
2019-05-22T09:47:09.435Z,4.53
2019-05-22T09:49:40.183Z,5.13
2019-05-22T09:52:10.917Z,4.80
2019-05-22T09:54:41.274Z,4.87
2019-05-22T09:57:12.223Z,4.85
2019-05-22T09:59:42.528Z,5.20
2019-05-22T10:02:13.168Z,3.93
2019-05-22T10:04:43.809Z,5.20
2019-05-22T10:07:14.104Z,3.92
2019-05-22T10:09:44.417Z,4.03
2019-05-22T10:12:15.402Z,4.67
2019-05-22T10:14:45.973Z,6.50
2019-05-22T10:17:17.148Z,4.13
2019-05-22T10:19:47.274Z,5.27
2019-05-22T10:22:17.641Z,5.33
2019-05-22T10:24:50.426Z,6.83
2019-05-22T10:27:21.709Z,4.57
2019-05-22T10:29:52.196Z,5.93
2019-05-22T10:32:22.440Z,3.50
2019-05-22T10:34:52.751Z,4.17
2019-05-22T10:37:24.733Z,4.47
2019-05-22T10:39:55.740Z,2.83
2019-05-22T10:42:25.906Z,3.77
2019-05-22T10:44:56.237Z,4.20
2019-05-22T10:47:26.633Z,5.37
2019-05-22T10:49:56.869Z,4.43
2019-05-22T10:52:28.086Z,5.93
2019-05-22T10:54:58.603Z,3.77
2019-05-22T10:57:40.769Z,5.73
2019-05-22T11:00:13.015Z,6.70
2019-05-22T11:02:43.622Z,4.73
2019-05-22T11:05:14.671Z,4.50
2019-05-22T11:07:45.536Z,4.87
2019-05-22T11:10:16.249Z,6.33
2019-05-22T11:12:47.292Z,5.23
2019-05-22T11:15:18.187Z,5.13
2019-05-22T11:17:48.963Z,7.37
2019-05-22T11:20:21.033Z,5.45
2019-05-22T11:22:51.539Z,5.00
2019-05-22T11:25:22.858Z,5.30
2019-05-22T11:27:55.241Z,4.80
2019-05-22T11:30:27.948Z,5.07
2019-05-22T11:32:58.346Z,4.67
2019-05-22T11:35:29.073Z,4.67
2019-05-22T11:38:00.076Z,6.33
2019-05-22T11:40:32.449Z,5.47
2019-05-22T11:43:03.571Z,5.23
2019-05-22T11:45:34.232Z,5.77
2019-05-22T11:48:05.576Z,5.40
2019-05-22T11:50:37.021Z,4.57
2019-05-22T11:53:07.526Z,4.67
2019-05-22T11:55:45.364Z,4.87
2019-05-22T11:58:12.757Z,5.83
2019-05-22T12:00:43.183Z,5.80
2019-05-22T12:03:33.299Z,4.95
2019-05-22T12:06:04.051Z,7.30
2019-05-22T12:08:34.685Z,5.27
2019-05-22T12:11:05.966Z,5.67
2019-05-22T12:13:37.216Z,6.27
2019-05-22T12:16:07.973Z,6.00
2019-05-22T12:18:38.247Z,4.07
2019-05-22T12:21:09.135Z,4.40
2019-05-22T12:23:39.717Z,4.70
2019-05-22T12:26:11.259Z,3.97
2019-05-22T12:28:42.642Z,4.43
2019-05-22T12:31:15.193Z,4.40
2019-05-22T12:33:45.700Z,4.27
2019-05-22T12:36:16.507Z,4.40
2019-05-22T12:38:46.960Z,4.10
2019-05-22T12:41:19.858Z,4.03
2019-05-22T12:43:50.302Z,5.13
2019-05-22T12:46:22.149Z,4.80
2019-05-22T12:48:53.546Z,5.20
2019-05-22T12:51:24.103Z,4.47
2019-05-22T12:53:55.142Z,4.70
2019-05-22T12:56:25.520Z,4.90
2019-05-22T12:58:57.061Z,5.03
2019-05-22T13:01:29.446Z,5.80
2019-05-22T13:04:00.764Z,5.77
2019-05-22T13:06:31.444Z,5.83
2019-05-22T13:09:03.695Z,5.97
2019-05-22T13:11:34.288Z,5.63
2019-05-22T13:14:04.967Z,6.13
2019-05-22T13:16:35.736Z,5.47
2019-05-22T13:19:07.566Z,5.58
2019-05-22T13:21:39.459Z,6.20
2019-05-22T13:24:22.049Z,6.13
2019-05-22T13:26:53.971Z,5.77
2019-05-22T13:29:27.009Z,6.37
2019-05-22T13:31:58.464Z,6.67
2019-05-22T13:34:29.757Z,7.23
2019-05-22T13:37:00.732Z,6.10
2019-05-22T13:39:31.334Z,5.77
2019-05-22T13:42:01.686Z,6.47
2019-05-22T13:44:35.476Z,8.27
2019-05-22T13:47:09.728Z,6.23
2019-05-22T13:49:41.697Z,5.20
2019-05-22T13:52:12.485Z,6.22
2019-05-22T13:54:43.923Z,5.50
2019-05-22T13:57:14.763Z,5.70
2019-05-22T13:59:45.276Z,5.23
2019-05-22T14:02:15.683Z,5.12
2019-05-22T14:04:45.967Z,7.50
2019-05-22T14:07:16.996Z,5.92
2019-05-22T14:09:47.501Z,7.17
2019-05-22T14:12:18.159Z,5.90
2019-05-22T14:14:48.698Z,6.50
2019-05-22T14:17:19.096Z,6.20
2019-05-22T14:19:49.516Z,6.30
2019-05-22T14:22:19.989Z,7.05
2019-05-22T14:24:50.579Z,6.80
2019-05-22T14:27:20.983Z,7.50
2019-05-22T14:29:51.454Z,6.77
2019-05-22T14:32:21.888Z,7.57
2019-05-22T14:34:52.242Z,7.43
2019-05-22T14:37:23.293Z,7.28
2019-05-22T14:39:53.934Z,8.37
2019-05-22T14:42:24.286Z,8.30
2019-05-22T14:44:54.747Z,9.10
2019-05-22T14:47:25.191Z,8.07
2019-05-22T14:49:55.542Z,8.10
2019-05-22T14:52:26.505Z,9.23
2019-05-22T14:55:00.224Z,8.67
2019-05-22T14:57:30.540Z,8.70
2019-05-22T15:00:01.186Z,8.67
2019-05-22T15:02:33.074Z,8.77
2019-05-22T15:05:03.822Z,8.43
2019-05-22T15:07:34.164Z,8.73
2019-05-22T15:10:05.143Z,7.93
2019-05-22T15:12:35.620Z,8.00
2019-05-22T15:15:07.685Z,8.35
2019-05-22T15:17:38.471Z,9.65
2019-05-22T15:20:09.393Z,8.80
2019-05-22T15:22:40.002Z,10.17
2019-05-22T15:25:11.665Z,11.20
2019-05-22T15:27:42.860Z,10.80
2019-05-22T15:30:15.951Z,10.70
2019-05-22T15:32:46.235Z,11.63
2019-05-22T15:35:17.199Z,12.25
2019-05-22T15:37:47.590Z,12.67
2019-05-22T15:40:18.417Z,11.93
2019-05-22T15:42:49.528Z,11.57
2019-05-22T15:45:24.378Z,11.83
2019-05-22T15:47:58.750Z,12.70
2019-05-22T15:50:32.041Z,12.50
2019-05-22T15:53:11.033Z,13.83
2019-05-22T15:55:42.740Z,12.17
2019-05-22T15:58:17.221Z,11.63
2019-05-22T16:00:48.262Z,11.73
2019-05-22T16:03:22.695Z,12.23
2019-05-22T16:05:55.896Z,12.57
2019-05-22T16:08:26.837Z,12.50
2019-05-22T16:11:00.386Z,12.63
2019-05-22T16:13:34.883Z,11.73
2019-05-22T16:16:06.514Z,13.20
2019-05-22T16:18:38.705Z,12.83
2019-05-22T16:21:11.101Z,12.73
2019-05-22T16:23:41.895Z,12.37
2019-05-22T16:26:14.694Z,12.77
2019-05-22T16:28:48.795Z,14.20
2019-05-22T16:31:22.209Z,12.33
2019-05-22T16:33:54.413Z,12.30
2019-05-22T16:36:26.026Z,12.05
2019-05-22T16:38:57.676Z,10.40
2019-05-22T16:41:30.909Z,7.50
2019-05-22T16:44:02.437Z,8.20
2019-05-22T16:46:33.716Z,7.90
2019-05-22T16:49:04.473Z,8.53
2019-05-22T16:51:36.508Z,8.57
2019-05-22T16:54:09.669Z,7.87
2019-05-22T16:56:40.507Z,7.63
2019-05-22T16:59:13.446Z,7.03
2019-05-22T17:01:58.572Z,6.10
2019-05-22T17:04:17.344Z,6.90
2019-05-22T17:06:48.722Z,5.30
2019-05-22T17:09:21.432Z,5.97
2019-05-22T17:11:52.663Z,6.60
2019-05-22T17:14:25.120Z,6.50
2019-05-22T17:16:56.321Z,5.30
2019-05-22T17:19:48.039Z,5.72
2019-05-22T17:22:19.871Z,5.87
2019-05-22T17:24:50.906Z,2.47
2019-05-22T17:27:22.953Z,1.60
2019-05-22T17:29:54.302Z,1.80
2019-05-22T17:32:27.551Z,2.27
2019-05-22T17:34:58.854Z,2.13
2019-05-22T17:37:30.804Z,1.97
2019-05-22T17:40:05.812Z,2.95
2019-05-22T17:42:37.495Z,2.13
2019-05-22T17:45:11.696Z,1.90
2019-05-22T17:47:42.862Z,2.43
2019-05-22T17:50:26.063Z,3.33
2019-05-22T17:52:49.032Z,3.20
2019-05-22T17:55:21.857Z,2.35
2019-05-22T17:57:53.224Z,1.60
2019-05-22T18:00:44.976Z,1.55
2019-05-22T18:03:15.605Z,1.95
2019-05-22T18:05:46.230Z,3.33
2019-05-22T18:10:51.320Z,3.47
2019-05-22T18:13:24.956Z,2.97
2019-05-22T18:15:55.616Z,1.90
2019-05-22T18:18:26.318Z,2.20
2019-05-22T18:20:56.888Z,3.27
2019-05-22T18:23:27.541Z,2.07
2019-05-22T18:25:58.004Z,2.20
2019-05-22T18:28:29.195Z,2.07
2019-05-22T18:30:59.877Z,2.10
2019-05-22T18:33:30.370Z,2.43
2019-05-22T18:36:01.153Z,3.27
2019-05-22T18:38:31.623Z,2.77
2019-05-22T18:41:02.380Z,4.23
2019-05-22T18:43:33.370Z,3.10
2019-05-22T18:46:04.323Z,3.50
2019-05-22T18:48:35.106Z,3.57
2019-05-22T18:51:07.685Z,6.07
2019-05-22T18:53:38.523Z,2.77
2019-05-22T18:56:10.930Z,3.63
2019-05-22T18:58:42.080Z,4.17
2019-05-22T19:06:06.813Z,4.43
2019-05-22T19:08:42.124Z,4.73
2019-05-22T19:11:12.704Z,4.45
2019-05-22T19:13:43.638Z,4.43
2019-05-22T19:16:14.231Z,3.35
2019-05-22T19:18:47.502Z,5.17
2019-05-22T19:21:21.373Z,5.22
2019-05-22T19:24:07.435Z,4.90
2019-05-22T19:26:43.815Z,4.10
2019-05-22T19:29:34.201Z,3.60
2019-05-22T19:32:05.996Z,4.50
2019-05-22T19:34:47.727Z,3.73
2019-05-22T19:37:18.946Z,3.97
2019-05-22T19:39:53.208Z,4.83
2019-05-22T19:42:40.444Z,4.17
2019-05-22T19:45:11.255Z,5.50
2019-05-22T19:47:50.594Z,5.13
2019-05-22T19:50:24.247Z,5.87
2019-05-22T19:52:57.073Z,3.47
2019-05-22T19:55:28.834Z,4.23
2019-05-22T19:58:00.307Z,3.70
2019-05-22T20:00:31.946Z,4.37
2019-05-22T20:03:03.833Z,5.17
2019-05-22T20:05:35.411Z,4.30
2019-05-22T20:08:15.219Z,5.27
2019-05-22T20:10:46.197Z,4.27
2019-05-22T20:13:18.659Z,4.20
2019-05-22T20:15:50.970Z,5.10
2019-05-22T20:18:21.635Z,5.25
2019-05-22T20:20:52.361Z,6.27
2019-05-22T20:23:35.554Z,4.83
2019-05-22T20:25:56.432Z,4.50
2019-05-22T20:28:27.892Z,4.90
2019-05-22T20:30:58.671Z,5.57
2019-05-22T20:33:29.855Z,5.30
2019-05-22T20:36:00.903Z,4.73
2019-05-22T20:38:39.287Z,4.13
2019-05-22T20:41:10.103Z,5.50
2019-05-22T20:43:42.316Z,4.53
2019-05-22T20:48:47.665Z,7.27
2019-05-22T20:51:21.105Z,5.13
2019-05-22T20:53:54.821Z,5.17
2019-05-22T20:56:27.824Z,5.83
2019-05-22T20:58:59.581Z,5.95
2019-05-22T21:01:31.677Z,7.17
2019-05-22T21:04:06.592Z,5.20
2019-05-22T21:06:48.816Z,5.63
2019-05-22T21:09:23.084Z,5.92
2019-05-22T21:11:53.574Z,6.37
2019-05-22T21:14:24.671Z,6.95
2019-05-22T21:16:56.003Z,8.13
2019-05-22T21:19:27.341Z,6.83
2019-05-22T21:22:00.031Z,6.73
2019-05-22T21:24:30.810Z,8.50
2019-05-22T21:27:05.106Z,5.30
2019-05-22T21:29:36.039Z,6.60
2019-05-22T21:32:08.766Z,6.65
2019-05-22T21:34:40.196Z,8.23
2019-05-22T21:37:11.056Z,5.33
2019-05-22T21:39:42.371Z,8.53
2019-05-22T21:42:13.310Z,6.93
2019-05-22T21:44:43.947Z,6.40
2019-05-22T21:47:14.932Z,6.47
2019-05-22T21:49:45.807Z,7.10
2019-05-22T21:52:19.019Z,8.90
2019-05-22T21:54:50.813Z,7.33
2019-05-22T21:57:21.495Z,9.93
2019-05-22T22:02:49.029Z,7.13
2019-05-22T22:05:20.348Z,6.17
2019-05-22T22:07:51.265Z,8.53
2019-05-22T22:10:21.593Z,6.00
2019-05-22T22:12:53.626Z,5.43
2019-05-22T22:15:24.284Z,7.33
2019-05-22T22:17:54.629Z,4.60
2019-05-22T22:20:25.461Z,6.80
2019-05-22T22:22:55.909Z,7.17
2019-05-22T22:25:31.544Z,5.30
2019-05-22T22:28:02.103Z,6.13
2019-05-22T22:30:38.800Z,5.97
2019-05-22T22:33:11.127Z,5.70
2019-05-22T22:35:41.519Z,4.87
2019-05-22T22:38:12.877Z,4.22
2019-05-22T22:40:44.084Z,4.07
2019-05-22T22:43:15.431Z,5.50
2019-05-22T22:45:54.746Z,6.83
2019-05-22T22:48:26.092Z,5.43
2019-05-22T22:50:57.536Z,5.37
2019-05-22T22:53:28.643Z,5.07
2019-05-22T22:55:58.784Z,5.50
2019-05-22T22:58:29.778Z,5.80
2019-05-22T23:01:01.375Z,5.50
2019-05-22T23:03:33.509Z,4.90
2019-05-22T23:06:05.122Z,6.63
2019-05-22T23:08:36.418Z,7.97
2019-05-22T23:11:09.294Z,7.78
2019-05-22T23:13:41.005Z,6.17
2019-05-22T23:16:12.397Z,6.25
2019-05-22T23:19:32.316Z,6.50
2019-05-22T23:22:01.491Z,6.30
2019-05-22T23:24:33.917Z,6.10
2019-05-22T23:27:06.167Z,7.30
2019-05-22T23:29:37.144Z,6.97
2019-05-22T23:32:09.457Z,6.90
2019-05-22T23:34:40.531Z,7.40
2019-05-22T23:37:13.252Z,8.28
2019-05-22T23:39:46.387Z,6.57
2019-05-22T23:42:22.622Z,8.05
2019-05-22T23:44:56.271Z,7.63
2019-05-22T23:47:27.214Z,5.77
2019-05-22T23:49:58.139Z,5.77
2019-05-22T23:52:29.121Z,7.63
2019-05-22T23:54:59.882Z,9.03
2019-05-22T23:57:30.216Z,6.63
